sensor_id;sensor_type;location;lat;lon;timestamp;pressure;altitude;pressure_sealevel;temperature;humidity
44934;BME280;30667;43.614;1.442;2022-08-14T00:02:22;99224.88;;;28.36;60.31
44934;BME280;30667;43.614;1.442;2022-08-14T00:04:47;99231.28;;;28.33;60.24
44934;BME280;30667;43.614;1.442;2022-08-14T00:07:13;99236.91;;;28.29;61.11
44934;BME280;30667;43.614;1.442;2022-08-14T00:09:38;99231.31;;;28.29;61.65
44934;BME280;30667;43.614;1.442;2022-08-14T00:12:05;99226.06;;;28.35;61.16
44934;BME280;30667;43.614;1.442;2022-08-14T00:14:31;99213.75;;;28.36;60.80
44934;BME280;30667;43.614;1.442;2022-08-14T00:16:56;99223.41;;;28.27;61.10
44934;BME280;30667;43.614;1.442;2022-08-14T00:19:22;99224.19;;;28.28;61.38
44934;BME280;30667;43.614;1.442;2022-08-14T00:21:49;99220.19;;;28.29;61.19
44934;BME280;30667;43.614;1.442;2022-08-14T00:24:14;99223.81;;;28.26;61.19
44934;BME280;30667;43.614;1.442;2022-08-14T00:26:40;99219.91;;;28.20;60.73
44934;BME280;30667;43.614;1.442;2022-08-14T00:29:05;99226.31;;;28.17;61.04
44934;BME280;30667;43.614;1.442;2022-08-14T00:31:31;99218.06;;;28.09;61.25
44934;BME280;30667;43.614;1.442;2022-08-14T00:33:56;99224.03;;;28.08;62.10
44934;BME280;30667;43.614;1.442;2022-08-14T00:36:23;99233.72;;;27.93;65.46
44934;BME280;30667;43.614;1.442;2022-08-14T00:38:48;99241.00;;;27.83;71.12
44934;BME280;30667;43.614;1.442;2022-08-14T00:41:14;99246.13;;;27.84;73.31
44934;BME280;30667;43.614;1.442;2022-08-14T00:43:39;99245.00;;;27.78;79.14
44934;BME280;30667;43.614;1.442;2022-08-14T00:46:08;99242.72;;;27.69;82.99
44934;BME280;30667;43.614;1.442;2022-08-14T00:48:36;99236.44;;;27.62;82.19
44934;BME280;30667;43.614;1.442;2022-08-14T00:51:03;99243.13;;;27.68;84.18
44934;BME280;30667;43.614;1.442;2022-08-14T00:53:28;99250.88;;;27.49;88.26
44934;BME280;30667;43.614;1.442;2022-08-14T00:55:56;99253.25;;;27.47;89.50
44934;BME280;30667;43.614;1.442;2022-08-14T00:58:22;99255.78;;;27.31;92.10
44934;BME280;30667;43.614;1.442;2022-08-14T01:00:58;99261.81;;;27.18;93.91
44934;BME280;30667;43.614;1.442;2022-08-14T01:03:26;99259.22;;;26.97;96.72
44934;BME280;30667;43.614;1.442;2022-08-14T01:05:57;99263.97;;;26.93;97.29
44934;BME280;30667;43.614;1.442;2022-08-14T01:08:26;99278.41;;;26.70;99.74
44934;BME280;30667;43.614;1.442;2022-08-14T01:10:54;99286.34;;;26.71;98.84
44934;BME280;30667;43.614;1.442;2022-08-14T01:13:32;99286.41;;;26.50;100.00
44934;BME280;30667;43.614;1.442;2022-08-14T01:16:00;99294.28;;;26.62;98.33
44934;BME280;30667;43.614;1.442;2022-08-14T01:18:28;99314.13;;;26.57;98.09
44934;BME280;30667;43.614;1.442;2022-08-14T01:21:12;99312.63;;;26.38;97.93
44934;BME280;30667;43.614;1.442;2022-08-14T01:23:45;99305.91;;;26.32;98.31
44934;BME280;30667;43.614;1.442;2022-08-14T01:26:11;99314.22;;;26.32;97.71
44934;BME280;30667;43.614;1.442;2022-08-14T01:28:38;99317.00;;;26.24;98.09
44934;BME280;30667;43.614;1.442;2022-08-14T01:31:10;99317.88;;;26.10;98.86
44934;BME280;30667;43.614;1.442;2022-08-14T01:33:37;99318.25;;;25.91;98.95
44934;BME280;30667;43.614;1.442;2022-08-14T01:36:05;99324.22;;;25.79;99.64
44934;BME280;30667;43.614;1.442;2022-08-14T01:38:31;99340.06;;;25.82;99.05
44934;BME280;30667;43.614;1.442;2022-08-14T01:41:01;99333.31;;;25.72;100.00
44934;BME280;30667;43.614;1.442;2022-08-14T01:43:26;99331.75;;;25.64;100.00
44934;BME280;30667;43.614;1.442;2022-08-14T01:45:56;99339.69;;;25.58;100.00
44934;BME280;30667;43.614;1.442;2022-08-14T01:48:23;99334.16;;;25.44;100.00
44934;BME280;30667;43.614;1.442;2022-08-14T01:50:50;99349.56;;;25.73;99.30
44934;BME280;30667;43.614;1.442;2022-08-14T01:53:15;99357.50;;;25.64;99.53
44934;BME280;30667;43.614;1.442;2022-08-14T01:55:42;99357.47;;;25.43;100.00
44934;BME280;30667;43.614;1.442;2022-08-14T01:58:07;99368.19;;;25.66;99.57
44934;BME280;30667;43.614;1.442;2022-08-14T02:00:42;99364.19;;;25.56;100.00
44934;BME280;30667;43.614;1.442;2022-08-14T02:03:08;99365.41;;;25.41;100.00
44934;BME280;30667;43.614;1.442;2022-08-14T02:05:34;99371.31;;;25.57;99.68
44934;BME280;30667;43.614;1.442;2022-08-14T02:08:00;99372.13;;;25.32;100.00
44934;BME280;30667;43.614;1.442;2022-08-14T02:10:25;99380.34;;;25.14;100.00
44934;BME280;30667;43.614;1.442;2022-08-14T02:12:54;99388.25;;;25.16;100.00
44934;BME280;30667;43.614;1.442;2022-08-14T02:15:20;99389.91;;;25.28;100.00
44934;BME280;30667;43.614;1.442;2022-08-14T02:17:47;99390.28;;;25.33;100.00
44934;BME280;30667;43.614;1.442;2022-08-14T02:20:13;99401.69;;;25.17;100.00
44934;BME280;30667;43.614;1.442;2022-08-14T02:22:38;99412.38;;;25.19;100.00
44934;BME280;30667;43.614;1.442;2022-08-14T02:25:04;99414.72;;;25.06;100.00
44934;BME280;30667;43.614;1.442;2022-08-14T02:27:29;99420.66;;;25.05;100.00
44934;BME280;30667;43.614;1.442;2022-08-14T02:29:55;99432.16;;;25.10;100.00
44934;BME280;30667;43.614;1.442;2022-08-14T02:32:21;99426.13;;;24.90;100.00
44934;BME280;30667;43.614;1.442;2022-08-14T02:34:46;99421.03;;;24.92;100.00
44934;BME280;30667;43.614;1.442;2022-08-14T02:37:12;99426.97;;;25.01;100.00
44934;BME280;30667;43.614;1.442;2022-08-14T02:39:44;99418.69;;;25.05;100.00
44934;BME280;30667;43.614;1.442;2022-08-14T02:42:12;99422.63;;;25.04;100.00
44934;BME280;30667;43.614;1.442;2022-08-14T02:44:40;99433.72;;;25.08;99.31
44934;BME280;30667;43.614;1.442;2022-08-14T02:47:06;99432.13;;;25.07;99.38
44934;BME280;30667;43.614;1.442;2022-08-14T02:49:32;99424.28;;;25.19;99.45
44934;BME280;30667;43.614;1.442;2022-08-14T02:51:58;99425.41;;;25.11;98.65
44934;BME280;30667;43.614;1.442;2022-08-14T02:54:25;99426.16;;;24.97;99.42
44934;BME280;30667;43.614;1.442;2022-08-14T02:56:53;99428.56;;;24.99;99.32
44934;BME280;30667;43.614;1.442;2022-08-14T02:59:20;99430.06;;;24.82;100.00
44934;BME280;30667;43.614;1.442;2022-08-14T03:01:47;99426.94;;;24.94;99.09
44934;BME280;30667;43.614;1.442;2022-08-14T03:04:13;99430.88;;;24.93;98.55
44934;BME280;30667;43.614;1.442;2022-08-14T03:06:39;99432.75;;;24.64;100.00
44934;BME280;30667;43.614;1.442;2022-08-14T03:09:08;99439.06;;;24.68;100.00
44934;BME280;30667;43.614;1.442;2022-08-14T03:11:34;99441.50;;;24.77;100.00
44934;BME280;30667;43.614;1.442;2022-08-14T03:14:00;99448.97;;;24.73;100.00
44934;BME280;30667;43.614;1.442;2022-08-14T03:16:26;99453.34;;;24.74;100.00
44934;BME280;30667;43.614;1.442;2022-08-14T03:18:53;99452.09;;;24.60;100.00
44934;BME280;30667;43.614;1.442;2022-08-14T03:21:23;99451.38;;;24.78;100.00
44934;BME280;30667;43.614;1.442;2022-08-14T03:23:51;99457.34;;;24.83;100.00
44934;BME280;30667;43.614;1.442;2022-08-14T03:26:19;99462.03;;;24.76;99.96
44934;BME280;30667;43.614;1.442;2022-08-14T03:28:51;99452.09;;;24.64;100.00
44934;BME280;30667;43.614;1.442;2022-08-14T03:31:17;99452.50;;;24.70;100.00
44934;BME280;30667;43.614;1.442;2022-08-14T03:33:47;99447.47;;;24.90;99.38
44934;BME280;30667;43.614;1.442;2022-08-14T03:36:13;99447.47;;;24.86;99.55
44934;BME280;30667;43.614;1.442;2022-08-14T03:38:43;99447.03;;;24.73;100.00
44934;BME280;30667;43.614;1.442;2022-08-14T03:41:31;99449.75;;;24.66;100.00
44934;BME280;30667;43.614;1.442;2022-08-14T03:43:59;99451.28;;;24.60;100.00
44934;BME280;30667;43.614;1.442;2022-08-14T03:46:27;99442.66;;;24.76;100.00
44934;BME280;30667;43.614;1.442;2022-08-14T03:48:54;99441.06;;;24.68;99.84
44934;BME280;30667;43.614;1.442;2022-08-14T03:51:20;99442.16;;;24.56;100.00
44934;BME280;30667;43.614;1.442;2022-08-14T03:53:47;99442.16;;;24.56;100.00
44934;BME280;30667;43.614;1.442;2022-08-14T03:56:15;99440.50;;;24.44;100.00
44934;BME280;30667;43.614;1.442;2022-08-14T03:58:44;99435.69;;;24.34;100.00
44934;BME280;30667;43.614;1.442;2022-08-14T04:01:15;99440.91;;;24.46;100.00
44934;BME280;30667;43.614;1.442;2022-08-14T04:03:44;99428.69;;;24.51;100.00
44934;BME280;30667;43.614;1.442;2022-08-14T04:06:09;99427.53;;;24.55;100.00
44934;BME280;30667;43.614;1.442;2022-08-14T04:08:38;99435.03;;;24.55;100.00
44934;BME280;30667;43.614;1.442;2022-08-14T04:11:05;99437.63;;;24.29;100.00
44934;BME280;30667;43.614;1.442;2022-08-14T04:13:33;99433.03;;;24.48;100.00
44934;BME280;30667;43.614;1.442;2022-08-14T04:16:03;99435.28;;;24.32;100.00
44934;BME280;30667;43.614;1.442;2022-08-14T04:18:29;99436.56;;;24.45;100.00
44934;BME280;30667;43.614;1.442;2022-08-14T04:20:56;99438.09;;;24.39;100.00
44934;BME280;30667;43.614;1.442;2022-08-14T04:23:23;99438.88;;;24.36;100.00
44934;BME280;30667;43.614;1.442;2022-08-14T04:25:49;99438.16;;;24.46;100.00
44934;BME280;30667;43.614;1.442;2022-08-14T04:28:18;99436.34;;;24.72;100.00
44934;BME280;30667;43.614;1.442;2022-08-14T04:30:44;99437.97;;;24.87;99.77
44934;BME280;30667;43.614;1.442;2022-08-14T04:33:10;99434.47;;;25.05;97.81
44934;BME280;30667;43.614;1.442;2022-08-14T04:35:36;99436.75;;;24.77;100.00
44934;BME280;30667;43.614;1.442;2022-08-14T04:38:06;99442.72;;;24.90;98.81
44934;BME280;30667;43.614;1.442;2022-08-14T04:40:50;99427.34;;;24.89;98.94
44934;BME280;30667;43.614;1.442;2022-08-14T04:43:34;99430.88;;;24.90;99.01
44934;BME280;30667;43.614;1.442;2022-08-14T04:46:10;99430.97;;;25.22;97.74
44934;BME280;30667;43.614;1.442;2022-08-14T04:48:35;99422.63;;;25.04;97.32
44934;BME280;30667;43.614;1.442;2022-08-14T04:51:06;99421.06;;;25.10;97.12
44934;BME280;30667;43.614;1.442;2022-08-14T04:53:33;99421.50;;;25.27;96.81
44934;BME280;30667;43.614;1.442;2022-08-14T04:55:58;99416.03;;;25.34;96.16
44934;BME280;30667;43.614;1.442;2022-08-14T04:58:29;99413.56;;;25.11;96.69
44934;BME280;30667;43.614;1.442;2022-08-14T05:00:56;99420.59;;;24.94;98.04
44934;BME280;30667;43.614;1.442;2022-08-14T05:03:27;99410.69;;;24.82;99.58
44934;BME280;30667;43.614;1.442;2022-08-14T05:05:55;99417.09;;;25.08;97.16
44934;BME280;30667;43.614;1.442;2022-08-14T05:08:21;99408.44;;;25.20;96.31
44934;BME280;30667;43.614;1.442;2022-08-14T05:10:58;99417.50;;;25.06;97.11
44934;BME280;30667;43.614;1.442;2022-08-14T05:13:25;99414.28;;;24.93;98.70
44934;BME280;30667;43.614;1.442;2022-08-14T05:15:53;99420.66;;;25.01;98.09
44934;BME280;30667;43.614;1.442;2022-08-14T05:18:25;99423.81;;;24.99;98.66
44934;BME280;30667;43.614;1.442;2022-08-14T05:20:52;99429.00;;;25.19;97.37
44934;BME280;30667;43.614;1.442;2022-08-14T05:23:21;99430.16;;;25.14;97.42
44934;BME280;30667;43.614;1.442;2022-08-14T05:25:48;99427.38;;;25.07;96.46
44934;BME280;30667;43.614;1.442;2022-08-14T05:28:19;99430.56;;;25.09;97.54
44934;BME280;30667;43.614;1.442;2022-08-14T05:30:46;99428.72;;;25.60;93.67
44934;BME280;30667;43.614;1.442;2022-08-14T05:33:13;99429.09;;;25.37;94.92
44934;BME280;30667;43.614;1.442;2022-08-14T05:35:39;99436.19;;;25.31;94.58
44934;BME280;30667;43.614;1.442;2022-08-14T05:38:08;99428.13;;;24.90;97.53
44934;BME280;30667;43.614;1.442;2022-08-14T05:40:34;99432.53;;;25.09;95.75
44934;BME280;30667;43.614;1.442;2022-08-14T05:43:00;99430.50;;;24.98;96.67
44934;BME280;30667;43.614;1.442;2022-08-14T05:45:27;99431.28;;;24.95;97.74
44934;BME280;30667;43.614;1.442;2022-08-14T05:47:52;99440.78;;;24.98;96.54
44934;BME280;30667;43.614;1.442;2022-08-14T05:50:18;99447.38;;;24.68;98.88
44934;BME280;30667;43.614;1.442;2022-08-14T05:52:43;99444.03;;;24.41;100.00
44934;BME280;30667;43.614;1.442;2022-08-14T05:55:10;99445.16;;;24.29;100.00
44934;BME280;30667;43.614;1.442;2022-08-14T05:57:53;99445.22;;;24.40;100.00
44934;BME280;30667;43.614;1.442;2022-08-14T06:00:21;99448.06;;;24.54;100.00
44934;BME280;30667;43.614;1.442;2022-08-14T06:02:47;99444.19;;;24.59;100.00
44934;BME280;30667;43.614;1.442;2022-08-14T06:05:13;99441.81;;;24.64;100.00
44934;BME280;30667;43.614;1.442;2022-08-14T06:07:38;99437.97;;;24.80;98.73
44934;BME280;30667;43.614;1.442;2022-08-14T06:10:05;99430.84;;;24.82;98.50
44934;BME280;30667;43.614;1.442;2022-08-14T06:12:31;99435.56;;;24.75;98.91
44934;BME280;30667;43.614;1.442;2022-08-14T06:14:57;99438.47;;;25.07;97.67
44934;BME280;30667;43.614;1.442;2022-08-14T06:17:24;99437.13;;;24.76;99.52
44934;BME280;30667;43.614;1.442;2022-08-14T06:19:49;99445.75;;;24.60;100.00
44934;BME280;30667;43.614;1.442;2022-08-14T06:22:14;99441.19;;;24.93;98.61
44934;BME280;30667;43.614;1.442;2022-08-14T06:24:40;99442.25;;;24.70;99.89
44934;BME280;30667;43.614;1.442;2022-08-14T06:27:05;99447.53;;;25.00;98.04
44934;BME280;30667;43.614;1.442;2022-08-14T06:29:31;99438.72;;;24.73;99.16
44934;BME280;30667;43.614;1.442;2022-08-14T06:31:57;99438.81;;;24.98;99.01
44934;BME280;30667;43.614;1.442;2022-08-14T06:34:22;99442.75;;;24.94;97.98
44934;BME280;30667;43.614;1.442;2022-08-14T06:36:48;99439.97;;;24.90;98.58
44934;BME280;30667;43.614;1.442;2022-08-14T06:39:13;99452.56;;;24.77;99.86
44934;BME280;30667;43.614;1.442;2022-08-14T06:41:39;99451.72;;;24.62;100.00
44934;BME280;30667;43.614;1.442;2022-08-14T06:44:07;99455.72;;;24.79;100.00
44934;BME280;30667;43.614;1.442;2022-08-14T06:46:32;99460.88;;;24.84;99.83
44934;BME280;30667;43.614;1.442;2022-08-14T06:48:58;99464.09;;;24.93;99.27
44934;BME280;30667;43.614;1.442;2022-08-14T06:51:23;99472.78;;;24.92;99.51
44934;BME280;30667;43.614;1.442;2022-08-14T06:53:49;99464.41;;;24.74;100.00
44934;BME280;30667;43.614;1.442;2022-08-14T06:56:14;99463.94;;;24.61;100.00
44934;BME280;30667;43.614;1.442;2022-08-14T06:58:40;99468.59;;;24.50;100.00
44934;BME280;30667;43.614;1.442;2022-08-14T07:01:06;99462.72;;;24.58;100.00
44934;BME280;30667;43.614;1.442;2022-08-14T07:03:50;99466.84;;;24.90;99.31
44934;BME280;30667;43.614;1.442;2022-08-14T07:06:34;99461.38;;;25.04;98.47
44934;BME280;30667;43.614;1.442;2022-08-14T07:08:59;99456.56;;;24.90;99.47
44934;BME280;30667;43.614;1.442;2022-08-14T07:11:25;99448.97;;;24.73;99.66
44934;BME280;30667;43.614;1.442;2022-08-14T07:13:52;99451.50;;;25.07;98.08
44934;BME280;30667;43.614;1.442;2022-08-14T07:16:17;99443.91;;;24.86;98.84
44934;BME280;30667;43.614;1.442;2022-08-14T07:18:42;99449.44;;;24.86;98.70
44934;BME280;30667;43.614;1.442;2022-08-14T07:21:09;99435.34;;;25.19;97.42
44934;BME280;30667;43.614;1.442;2022-08-14T07:23:35;99440.84;;;25.12;96.70
44934;BME280;30667;43.614;1.442;2022-08-14T07:26:04;99436.84;;;25.02;98.62
44934;BME280;30667;43.614;1.442;2022-08-14T07:28:35;99432.13;;;25.07;96.59
44934;BME280;30667;43.614;1.442;2022-08-14T07:31:03;99437.25;;;25.05;96.79
44934;BME280;30667;43.614;1.442;2022-08-14T07:33:34;99430.09;;;24.89;99.21
44934;BME280;30667;43.614;1.442;2022-08-14T07:36:02;99425.91;;;25.35;95.21
44934;BME280;30667;43.614;1.442;2022-08-14T07:38:29;99427.00;;;25.16;96.24
44934;BME280;30667;43.614;1.442;2022-08-14T07:40:54;99421.56;;;25.45;95.08
44934;BME280;30667;43.614;1.442;2022-08-14T07:43:21;99419.22;;;25.47;94.26
44934;BME280;30667;43.614;1.442;2022-08-14T07:45:47;99416.81;;;25.49;94.31
44934;BME280;30667;43.614;1.442;2022-08-14T07:48:12;99408.94;;;25.76;92.13
44934;BME280;30667;43.614;1.442;2022-08-14T07:50:38;99418.03;;;25.77;91.99
44934;BME280;30667;43.614;1.442;2022-08-14T07:53:04;99420.41;;;25.71;92.70
44934;BME280;30667;43.614;1.442;2022-08-14T07:55:31;99420.81;;;25.69;91.56
44934;BME280;30667;43.614;1.442;2022-08-14T07:57:57;99410.50;;;25.88;91.01
44934;BME280;30667;43.614;1.442;2022-08-14T08:00:23;99416.06;;;25.77;91.90
44934;BME280;30667;43.614;1.442;2022-08-14T08:02:52;99418.41;;;25.75;91.70
44934;BME280;30667;43.614;1.442;2022-08-14T08:05:21;99419.63;;;25.92;90.26
44934;BME280;30667;43.614;1.442;2022-08-14T08:07:48;99412.88;;;25.86;90.26
44934;BME280;30667;43.614;1.442;2022-08-14T08:10:16;99408.13;;;25.86;90.80
44934;BME280;30667;43.614;1.442;2022-08-14T08:13:08;99406.94;;;25.59;93.23
44934;BME280;30667;43.614;1.442;2022-08-14T08:15:37;99406.16;;;25.54;93.27
44934;BME280;30667;43.614;1.442;2022-08-14T08:18:04;99408.88;;;25.36;93.20
44934;BME280;30667;43.614;1.442;2022-08-14T08:20:39;99403.38;;;25.62;92.57
44934;BME280;30667;43.614;1.442;2022-08-14T08:23:05;99407.75;;;25.70;91.56
44934;BME280;30667;43.614;1.442;2022-08-14T08:25:38;99405.38;;;25.68;91.79
44934;BME280;30667;43.614;1.442;2022-08-14T08:28:09;99415.25;;;25.77;91.48
44934;BME280;30667;43.614;1.442;2022-08-14T08:30:37;99419.63;;;25.78;90.24
44934;BME280;30667;43.614;1.442;2022-08-14T08:33:09;99414.50;;;25.69;90.03
44934;BME280;30667;43.614;1.442;2022-08-14T08:35:36;99413.28;;;25.77;89.41
44934;BME280;30667;43.614;1.442;2022-08-14T08:38:18;99410.13;;;25.82;89.32
44934;BME280;30667;43.614;1.442;2022-08-14T08:40:46;99415.66;;;25.75;89.83
44934;BME280;30667;43.614;1.442;2022-08-14T08:46:02;99416.84;;;25.78;88.94
44934;BME280;30667;43.614;1.442;2022-08-14T08:48:30;99411.72;;;25.87;87.99
44934;BME280;30667;43.614;1.442;2022-08-14T08:51:07;99415.66;;;25.89;88.14
44934;BME280;30667;43.614;1.442;2022-08-14T08:53:35;99415.66;;;26.15;86.64
44934;BME280;30667;43.614;1.442;2022-08-14T08:56:02;99402.94;;;26.35;86.03
44934;BME280;30667;43.614;1.442;2022-08-14T08:58:28;99408.94;;;26.19;85.79
44934;BME280;30667;43.614;1.442;2022-08-14T09:00:56;99401.34;;;26.34;85.75
44934;BME280;30667;43.614;1.442;2022-08-14T09:03:23;99405.34;;;26.26;85.16
44934;BME280;30667;43.614;1.442;2022-08-14T09:05:53;99401.78;;;26.36;84.91
44934;BME280;30667;43.614;1.442;2022-08-14T09:08:30;99399.75;;;26.40;84.27
44934;BME280;30667;43.614;1.442;2022-08-14T09:10:57;99402.13;;;26.42;83.78
44934;BME280;30667;43.614;1.442;2022-08-14T09:13:24;99397.38;;;26.39;82.98
44934;BME280;30667;43.614;1.442;2022-08-14T09:15:54;99394.22;;;26.44;82.73
44934;BME280;30667;43.614;1.442;2022-08-14T09:18:21;99400.94;;;26.46;82.93
44934;BME280;30667;43.614;1.442;2022-08-14T09:20:52;99395.78;;;26.49;82.12
44934;BME280;30667;43.614;1.442;2022-08-14T09:23:18;99406.47;;;26.50;82.44
44934;BME280;30667;43.614;1.442;2022-08-14T09:25:47;99407.25;;;26.58;82.17
44934;BME280;30667;43.614;1.442;2022-08-14T09:28:14;99405.25;;;26.69;80.99
44934;BME280;30667;43.614;1.442;2022-08-14T09:30:47;99409.63;;;26.67;81.03
44934;BME280;30667;43.614;1.442;2022-08-14T09:38:38;99413.56;;;26.69;79.52
44934;BME280;30667;43.614;1.442;2022-08-14T09:46:31;99417.53;;;26.79;78.70
44934;BME280;30667;43.614;1.442;2022-08-14T09:48:58;99421.47;;;26.81;77.88
44934;BME280;30667;43.614;1.442;2022-08-14T09:51:24;99416.31;;;26.80;76.69
44934;BME280;30667;43.614;1.442;2022-08-14T09:54:03;99424.25;;;26.78;77.66
44934;BME280;30667;43.614;1.442;2022-08-14T09:56:50;99425.84;;;26.75;77.43
44934;BME280;30667;43.614;1.442;2022-08-14T09:59:17;99423.06;;;26.75;76.59
44934;BME280;30667;43.614;1.442;2022-08-14T10:01:47;99428.25;;;26.73;76.50
44934;BME280;30667;43.614;1.442;2022-08-14T10:04:21;99432.16;;;26.83;77.24
44934;BME280;30667;43.614;1.442;2022-08-14T10:06:49;99436.91;;;26.86;74.92
44934;BME280;30667;43.614;1.442;2022-08-14T10:09:16;99435.72;;;26.87;76.33
44934;BME280;30667;43.614;1.442;2022-08-14T10:11:56;99428.97;;;26.88;75.88
44934;BME280;30667;43.614;1.442;2022-08-14T10:14:24;99439.66;;;26.90;75.27
44934;BME280;30667;43.614;1.442;2022-08-14T10:16:52;99443.59;;;26.96;75.84
44934;BME280;30667;43.614;1.442;2022-08-14T10:19:23;99437.28;;;26.92;74.88
44934;BME280;30667;43.614;1.442;2022-08-14T10:22:08;99432.13;;;26.94;75.30
44934;BME280;30667;43.614;1.442;2022-08-14T10:24:39;99438.09;;;26.92;75.00
44934;BME280;30667;43.614;1.442;2022-08-14T10:27:18;99435.72;;;26.87;72.95
44934;BME280;30667;43.614;1.442;2022-08-14T10:29:55;99437.69;;;26.90;72.83
44934;BME280;30667;43.614;1.442;2022-08-14T10:32:23;99439.69;;;26.86;73.31
44934;BME280;30667;43.614;1.442;2022-08-14T10:34:50;99435.34;;;26.81;73.31
44934;BME280;30667;43.614;1.442;2022-08-14T10:37:17;99434.50;;;26.88;74.14
44934;BME280;30667;43.614;1.442;2022-08-14T10:39:44;99436.91;;;26.93;74.20
44934;BME280;30667;43.614;1.442;2022-08-14T10:42:12;99440.84;;;26.92;74.09
44934;BME280;30667;43.614;1.442;2022-08-14T10:44:45;99430.13;;;26.94;73.99
44934;BME280;30667;43.614;1.442;2022-08-14T10:47:14;99435.28;;;26.96;73.48
44934;BME280;30667;43.614;1.442;2022-08-14T10:49:55;99434.13;;;26.90;71.39
44934;BME280;30667;43.614;1.442;2022-08-14T10:52:27;99426.56;;;26.94;70.60
44934;BME280;30667;43.614;1.442;2022-08-14T10:55:05;99426.53;;;27.01;70.83
44934;BME280;30667;43.614;1.442;2022-08-14T10:57:32;99427.31;;;26.98;70.74
44934;BME280;30667;43.614;1.442;2022-08-14T11:00:10;99431.31;;;26.97;70.87
44934;BME280;30667;43.614;1.442;2022-08-14T11:02:38;99434.09;;;26.97;71.29
44934;BME280;30667;43.614;1.442;2022-08-14T11:05:09;99420.22;;;26.97;70.90
44934;BME280;30667;43.614;1.442;2022-08-14T11:07:38;99424.16;;;26.99;71.60
44934;BME280;30667;43.614;1.442;2022-08-14T11:10:09;99414.22;;;27.02;70.79
44934;BME280;30667;43.614;1.442;2022-08-14T11:12:47;99420.59;;;26.99;69.11
44934;BME280;30667;43.614;1.442;2022-08-14T11:15:15;99421.38;;;26.99;69.29
44934;BME280;30667;43.614;1.442;2022-08-14T11:17:44;99420.97;;;27.01;68.38
44934;BME280;30667;43.614;1.442;2022-08-14T11:20:20;99420.16;;;27.08;69.73
44934;BME280;30667;43.614;1.442;2022-08-14T11:22:45;99416.19;;;27.09;67.55
44934;BME280;30667;43.614;1.442;2022-08-14T11:25:14;99429.25;;;27.12;69.33
44934;BME280;30667;43.614;1.442;2022-08-14T11:27:43;99420.91;;;27.15;67.99
44934;BME280;30667;43.614;1.442;2022-08-14T11:30:12;99420.16;;;27.11;66.43
44934;BME280;30667;43.614;1.442;2022-08-14T11:32:45;99411.41;;;27.13;68.19
44934;BME280;30667;43.614;1.442;2022-08-14T11:35:14;99408.22;;;27.14;68.59
44934;BME280;30667;43.614;1.442;2022-08-14T11:40:18;99405.38;;;27.22;69.26
44934;BME280;30667;43.614;1.442;2022-08-14T11:42:45;99403.44;;;27.22;68.59
44934;BME280;30667;43.614;1.442;2022-08-14T11:45:12;99403.81;;;27.24;67.47
44934;BME280;30667;43.614;1.442;2022-08-14T11:47:41;99408.19;;;27.18;67.95
44934;BME280;30667;43.614;1.442;2022-08-14T11:50:18;99407.44;;;27.10;67.41
44934;BME280;30667;43.614;1.442;2022-08-14T11:52:45;99407.47;;;27.07;66.87
44934;BME280;30667;43.614;1.442;2022-08-14T11:55:13;99407.06;;;27.08;67.50
44934;BME280;30667;43.614;1.442;2022-08-14T11:57:41;99407.06;;;27.08;67.52
44934;BME280;30667;43.614;1.442;2022-08-14T12:00:15;99403.91;;;27.06;68.77
44934;BME280;30667;43.614;1.442;2022-08-14T12:02:52;99400.31;;;27.09;68.69
44934;BME280;30667;43.614;1.442;2022-08-14T12:05:37;99397.50;;;27.16;67.71
44934;BME280;30667;43.614;1.442;2022-08-14T12:08:05;99396.31;;;27.17;67.39
44934;BME280;30667;43.614;1.442;2022-08-14T12:10:32;99399.47;;;27.19;66.34
44934;BME280;30667;43.614;1.442;2022-08-14T12:13:12;99395.50;;;27.21;67.99
44934;BME280;30667;43.614;1.442;2022-08-14T12:15:38;99397.06;;;27.22;68.91
44934;BME280;30667;43.614;1.442;2022-08-14T12:18:05;99392.28;;;27.26;65.67
44934;BME280;30667;43.614;1.442;2022-08-14T12:20:34;99392.25;;;27.29;62.73
44934;BME280;30667;43.614;1.442;2022-08-14T12:23:04;99386.28;;;27.34;60.95
44934;BME280;30667;43.614;1.442;2022-08-14T12:25:29;99383.91;;;27.36;64.35
44934;BME280;30667;43.614;1.442;2022-08-14T12:27:57;99386.28;;;27.34;66.26
44934;BME280;30667;43.614;1.442;2022-08-14T12:30:34;99384.72;;;27.30;65.59
44934;BME280;30667;43.614;1.442;2022-08-14T12:33:03;99375.22;;;27.31;66.28
44934;BME280;30667;43.614;1.442;2022-08-14T12:35:40;99373.59;;;27.30;67.19
44934;BME280;30667;43.614;1.442;2022-08-14T12:38:09;99378.78;;;27.35;64.53
44934;BME280;30667;43.614;1.442;2022-08-14T12:40:55;99368.81;;;27.38;63.50
44934;BME280;30667;43.614;1.442;2022-08-14T12:43:20;99367.22;;;27.40;61.24
44934;BME280;30667;43.614;1.442;2022-08-14T12:45:47;99362.09;;;27.35;62.64
44934;BME280;30667;43.614;1.442;2022-08-14T12:48:17;99360.50;;;27.34;63.40
44934;BME280;30667;43.614;1.442;2022-08-14T12:50:44;99361.69;;;27.33;62.36
44934;BME280;30667;43.614;1.442;2022-08-14T12:53:11;99354.09;;;27.41;61.22
44934;BME280;30667;43.614;1.442;2022-08-14T12:55:37;99362.00;;;27.49;60.88
44934;BME280;30667;43.614;1.442;2022-08-14T12:58:05;99348.16;;;27.42;63.18
44934;BME280;30667;43.614;1.442;2022-08-14T13:00:33;99346.56;;;27.45;63.57
44934;BME280;30667;43.614;1.442;2022-08-14T13:02:59;99354.06;;;27.48;57.68
44934;BME280;30667;43.614;1.442;2022-08-14T13:05:28;99343.38;;;27.46;58.81
44934;BME280;30667;43.614;1.442;2022-08-14T13:07:56;99346.97;;;27.43;60.08
44934;BME280;30667;43.614;1.442;2022-08-14T13:10:26;99338.22;;;27.45;59.68
44934;BME280;30667;43.614;1.442;2022-08-14T13:12:55;99330.22;;;27.54;58.78
44934;BME280;30667;43.614;1.442;2022-08-14T13:15:21;99336.50;;;27.58;59.90
44934;BME280;30667;43.614;1.442;2022-08-14T13:17:49;99332.56;;;27.56;60.22
44934;BME280;30667;43.614;1.442;2022-08-14T13:20:20;99330.22;;;27.50;61.42
44934;BME280;30667;43.614;1.442;2022-08-14T13:22:47;99337.28;;;27.62;57.04